Annawan, Illinois
Current Conditions -  °F | °C
As of 11:55 PM on Saturday 25 Oct 2014 (Local Time) from KSQI Reporting Station
Clear Clear  
Wind Chill:   Ceiling: Unl
Heat Index:   Visibility: 10mi
Dew Point:   Wind: 6mph
Humidity: 54%   Direction: 280°W
Pressure: 30.02"   Gusts: NA
Location:  41.4°N, 89.9°W
Report Text: KSQI 260455Z AUTO 28005KT 10SM CLR 09/00 A3002 RMK AO1
Loading
Personal Weather Stations






























Interactive Weather Map
Tropical Storm Tracking
New forecast layout! Learn more

10-Day Weather Forecast

Advertisements
Track Severe Weather on mobile